sensor_id;sensor_type;location;lat;lon;timestamp;P1;durP1;ratioP1;P2;durP2;ratioP2
8066;SDS011;4076;48.076;9.118;2023-03-31T00:00:34;5.50;;;3.20;;
8066;SDS011;4076;48.076;9.118;2023-03-31T00:03:00;4.47;;;2.23;;
8066;SDS011;4076;48.076;9.118;2023-03-31T00:05:26;3.63;;;1.87;;
8066;SDS011;4076;48.076;9.118;2023-03-31T00:07:53;5.07;;;2.00;;
8066;SDS011;4076;48.076;9.118;2023-03-31T00:10:24;4.70;;;2.00;;
8066;SDS011;4076;48.076;9.118;2023-03-31T00:12:51;5.47;;;2.33;;
8066;SDS011;4076;48.076;9.118;2023-03-31T00:15:18;6.00;;;2.63;;
8066;SDS011;4076;48.076;9.118;2023-03-31T00:17:44;3.80;;;1.90;;
8066;SDS011;4076;48.076;9.118;2023-03-31T00:20:11;8.60;;;4.37;;
8066;SDS011;4076;48.076;9.118;2023-03-31T00:22:37;5.00;;;2.10;;
8066;SDS011;4076;48.076;9.118;2023-03-31T00:25:06;5.20;;;2.40;;
8066;SDS011;4076;48.076;9.118;2023-03-31T00:27:34;4.73;;;2.10;;
8066;SDS011;4076;48.076;9.118;2023-03-31T00:30:00;4.83;;;2.33;;
8066;SDS011;4076;48.076;9.118;2023-03-31T00:32:25;3.90;;;2.13;;
8066;SDS011;4076;48.076;9.118;2023-03-31T00:34:51;5.10;;;2.97;;
8066;SDS011;4076;48.076;9.118;2023-03-31T00:37:16;9.10;;;3.43;;
8066;SDS011;4076;48.076;9.118;2023-03-31T00:39:42;7.27;;;2.87;;
8066;SDS011;4076;48.076;9.118;2023-03-31T00:42:09;4.90;;;2.73;;
8066;SDS011;4076;48.076;9.118;2023-03-31T00:45:25;4.10;;;2.00;;
8066;SDS011;4076;48.076;9.118;2023-03-31T00:47:41;7.67;;;3.37;;
8066;SDS011;4076;48.076;9.118;2023-03-31T00:50:24;5.20;;;2.90;;
8066;SDS011;4076;48.076;9.118;2023-03-31T00:52:56;4.23;;;2.23;;
8066;SDS011;4076;48.076;9.118;2023-03-31T00:55:27;4.73;;;3.07;;
8066;SDS011;4076;48.076;9.118;2023-03-31T00:57:58;4.67;;;2.90;;
8066;SDS011;4076;48.076;9.118;2023-03-31T01:00:26;5.30;;;2.67;;
8066;SDS011;4076;48.076;9.118;2023-03-31T01:02:55;5.33;;;2.33;;
8066;SDS011;4076;48.076;9.118;2023-03-31T01:05:27;5.17;;;2.50;;
8066;SDS011;4076;48.076;9.118;2023-03-31T01:08:00;5.70;;;2.10;;
8066;SDS011;4076;48.076;9.118;2023-03-31T01:10:29;7.60;;;3.70;;
8066;SDS011;4076;48.076;9.118;2023-03-31T01:13:05;10.63;;;3.67;;
8066;SDS011;4076;48.076;9.118;2023-03-31T01:15:32;10.60;;;3.60;;
8066;SDS011;4076;48.076;9.118;2023-03-31T01:17:58;5.67;;;2.30;;
8066;SDS011;4076;48.076;9.118;2023-03-31T01:23:21;5.73;;;2.87;;
8066;SDS011;4076;48.076;9.118;2023-03-31T01:28:40;4.10;;;2.40;;
8066;SDS011;4076;48.076;9.118;2023-03-31T01:47:34;4.97;;;3.53;;
8066;SDS011;4076;48.076;9.118;2023-03-31T01:50:03;5.43;;;2.30;;
8066;SDS011;4076;48.076;9.118;2023-03-31T01:58:46;5.60;;;2.40;;
8066;SDS011;4076;48.076;9.118;2023-03-31T02:01:17;4.57;;;2.50;;
8066;SDS011;4076;48.076;9.118;2023-03-31T02:03:57;6.77;;;2.70;;
8066;SDS011;4076;48.076;9.118;2023-03-31T02:06:28;6.47;;;3.07;;
8066;SDS011;4076;48.076;9.118;2023-03-31T02:09:00;5.27;;;2.60;;
8066;SDS011;4076;48.076;9.118;2023-03-31T02:11:34;5.97;;;3.17;;
8066;SDS011;4076;48.076;9.118;2023-03-31T02:14:02;7.00;;;3.47;;
8066;SDS011;4076;48.076;9.118;2023-03-31T02:16:32;5.60;;;3.23;;
8066;SDS011;4076;48.076;9.118;2023-03-31T02:19:02;5.57;;;3.17;;
8066;SDS011;4076;48.076;9.118;2023-03-31T02:21:30;6.07;;;2.87;;
8066;SDS011;4076;48.076;9.118;2023-03-31T02:23:58;7.40;;;2.97;;
8066;SDS011;4076;48.076;9.118;2023-03-31T02:26:30;5.23;;;2.77;;
8066;SDS011;4076;48.076;9.118;2023-03-31T02:29:01;5.30;;;2.40;;
8066;SDS011;4076;48.076;9.118;2023-03-31T02:31:37;7.90;;;3.20;;
8066;SDS011;4076;48.076;9.118;2023-03-31T02:34:10;6.93;;;3.40;;
8066;SDS011;4076;48.076;9.118;2023-03-31T02:36:35;4.67;;;2.63;;
8066;SDS011;4076;48.076;9.118;2023-03-31T02:39:03;5.17;;;3.07;;
8066;SDS011;4076;48.076;9.118;2023-03-31T02:41:32;5.70;;;2.37;;
8066;SDS011;4076;48.076;9.118;2023-03-31T02:43:58;7.20;;;3.17;;
8066;SDS011;4076;48.076;9.118;2023-03-31T02:46:24;5.10;;;2.60;;
8066;SDS011;4076;48.076;9.118;2023-03-31T02:48:52;4.33;;;1.90;;
8066;SDS011;4076;48.076;9.118;2023-03-31T02:54:15;6.13;;;2.97;;
8066;SDS011;4076;48.076;9.118;2023-03-31T02:57:01;5.27;;;3.23;;
8066;SDS011;4076;48.076;9.118;2023-03-31T02:59:45;7.00;;;2.80;;
8066;SDS011;4076;48.076;9.118;2023-03-31T03:13:57;4.63;;;2.73;;
8066;SDS011;4076;48.076;9.118;2023-03-31T03:16:44;9.03;;;2.43;;
8066;SDS011;4076;48.076;9.118;2023-03-31T03:19:17;3.80;;;1.97;;
8066;SDS011;4076;48.076;9.118;2023-03-31T03:21:47;6.00;;;3.10;;
8066;SDS011;4076;48.076;9.118;2023-03-31T03:24:14;5.60;;;2.33;;
8066;SDS011;4076;48.076;9.118;2023-03-31T03:26:41;4.50;;;2.27;;
8066;SDS011;4076;48.076;9.118;2023-03-31T03:29:08;8.27;;;2.50;;
8066;SDS011;4076;48.076;9.118;2023-03-31T03:31:37;4.93;;;2.27;;
8066;SDS011;4076;48.076;9.118;2023-03-31T03:34:03;3.60;;;2.17;;
8066;SDS011;4076;48.076;9.118;2023-03-31T03:36:28;5.60;;;3.40;;
8066;SDS011;4076;48.076;9.118;2023-03-31T03:38:54;5.20;;;2.63;;
8066;SDS011;4076;48.076;9.118;2023-03-31T03:41:19;4.30;;;2.27;;
8066;SDS011;4076;48.076;9.118;2023-03-31T03:43:45;6.33;;;2.40;;
8066;SDS011;4076;48.076;9.118;2023-03-31T03:46:11;4.90;;;3.10;;
8066;SDS011;4076;48.076;9.118;2023-03-31T03:48:36;5.30;;;2.37;;
8066;SDS011;4076;48.076;9.118;2023-03-31T03:51:02;6.93;;;3.57;;
8066;SDS011;4076;48.076;9.118;2023-03-31T03:53:27;12.97;;;5.80;;
8066;SDS011;4076;48.076;9.118;2023-03-31T03:55:53;9.50;;;5.10;;
8066;SDS011;4076;48.076;9.118;2023-03-31T03:58:19;9.13;;;5.63;;
8066;SDS011;4076;48.076;9.118;2023-03-31T04:00:45;9.10;;;4.63;;
8066;SDS011;4076;48.076;9.118;2023-03-31T04:03:11;7.53;;;3.53;;
8066;SDS011;4076;48.076;9.118;2023-03-31T04:05:37;7.03;;;3.73;;
8066;SDS011;4076;48.076;9.118;2023-03-31T04:08:03;16.17;;;6.33;;
8066;SDS011;4076;48.076;9.118;2023-03-31T04:10:30;8.67;;;4.23;;
8066;SDS011;4076;48.076;9.118;2023-03-31T04:12:56;7.27;;;5.00;;
8066;SDS011;4076;48.076;9.118;2023-03-31T04:15:21;15.50;;;6.70;;
8066;SDS011;4076;48.076;9.118;2023-03-31T04:17:47;9.13;;;5.40;;
8066;SDS011;4076;48.076;9.118;2023-03-31T04:20:15;8.50;;;4.87;;
8066;SDS011;4076;48.076;9.118;2023-03-31T04:22:41;16.50;;;7.83;;
8066;SDS011;4076;48.076;9.118;2023-03-31T04:25:07;8.03;;;4.00;;
8066;SDS011;4076;48.076;9.118;2023-03-31T04:27:39;9.60;;;5.73;;
8066;SDS011;4076;48.076;9.118;2023-03-31T04:30:11;9.60;;;6.50;;
8066;SDS011;4076;48.076;9.118;2023-03-31T04:32:38;10.43;;;6.57;;
8066;SDS011;4076;48.076;9.118;2023-03-31T04:35:03;11.27;;;7.07;;
8066;SDS011;4076;48.076;9.118;2023-03-31T04:37:30;16.77;;;8.03;;
8066;SDS011;4076;48.076;9.118;2023-03-31T04:40:02;10.50;;;6.03;;
8066;SDS011;4076;48.076;9.118;2023-03-31T04:42:34;10.30;;;6.90;;
8066;SDS011;4076;48.076;9.118;2023-03-31T04:45:00;12.60;;;6.90;;
8066;SDS011;4076;48.076;9.118;2023-03-31T04:47:26;9.73;;;6.70;;
8066;SDS011;4076;48.076;9.118;2023-03-31T04:49:51;10.00;;;6.67;;
8066;SDS011;4076;48.076;9.118;2023-03-31T04:52:17;7.30;;;4.63;;
8066;SDS011;4076;48.076;9.118;2023-03-31T04:54:42;8.07;;;5.63;;
8066;SDS011;4076;48.076;9.118;2023-03-31T04:57:08;10.30;;;7.20;;
8066;SDS011;4076;48.076;9.118;2023-03-31T04:59:33;10.50;;;6.03;;
8066;SDS011;4076;48.076;9.118;2023-03-31T05:01:59;8.70;;;5.60;;
8066;SDS011;4076;48.076;9.118;2023-03-31T05:04:24;7.63;;;4.70;;
8066;SDS011;4076;48.076;9.118;2023-03-31T05:06:50;9.53;;;5.90;;
8066;SDS011;4076;48.076;9.118;2023-03-31T05:09:16;10.33;;;4.70;;
8066;SDS011;4076;48.076;9.118;2023-03-31T05:11:41;6.70;;;4.63;;
8066;SDS011;4076;48.076;9.118;2023-03-31T05:14:07;7.80;;;4.23;;
8066;SDS011;4076;48.076;9.118;2023-03-31T05:16:32;8.03;;;4.53;;
8066;SDS011;4076;48.076;9.118;2023-03-31T05:18:58;6.73;;;4.20;;
8066;SDS011;4076;48.076;9.118;2023-03-31T05:21:24;9.53;;;5.87;;
8066;SDS011;4076;48.076;9.118;2023-03-31T05:23:51;8.00;;;4.80;;
8066;SDS011;4076;48.076;9.118;2023-03-31T05:26:17;9.37;;;6.60;;
8066;SDS011;4076;48.076;9.118;2023-03-31T05:28:42;8.40;;;5.47;;
8066;SDS011;4076;48.076;9.118;2023-03-31T05:31:08;6.70;;;4.90;;
8066;SDS011;4076;48.076;9.118;2023-03-31T05:33:36;6.93;;;3.60;;
8066;SDS011;4076;48.076;9.118;2023-03-31T05:36:09;6.17;;;4.47;;
8066;SDS011;4076;48.076;9.118;2023-03-31T05:38:40;4.93;;;3.23;;
8066;SDS011;4076;48.076;9.118;2023-03-31T05:41:07;5.70;;;3.80;;
8066;SDS011;4076;48.076;9.118;2023-03-31T05:43:35;5.87;;;3.70;;
8066;SDS011;4076;48.076;9.118;2023-03-31T05:46:01;5.90;;;4.83;;
8066;SDS011;4076;48.076;9.118;2023-03-31T05:48:27;5.50;;;3.93;;
8066;SDS011;4076;48.076;9.118;2023-03-31T05:50:56;5.97;;;3.83;;
8066;SDS011;4076;48.076;9.118;2023-03-31T05:53:22;7.80;;;4.07;;
8066;SDS011;4076;48.076;9.118;2023-03-31T05:55:48;5.90;;;3.23;;
8066;SDS011;4076;48.076;9.118;2023-03-31T05:58:14;6.70;;;4.50;;
8066;SDS011;4076;48.076;9.118;2023-03-31T06:00:40;7.23;;;4.60;;
8066;SDS011;4076;48.076;9.118;2023-03-31T06:03:05;8.30;;;5.70;;
8066;SDS011;4076;48.076;9.118;2023-03-31T06:05:32;14.83;;;6.20;;
8066;SDS011;4076;48.076;9.118;2023-03-31T06:07:58;7.13;;;5.20;;
8066;SDS011;4076;48.076;9.118;2023-03-31T06:10:24;8.90;;;5.47;;
8066;SDS011;4076;48.076;9.118;2023-03-31T06:12:50;6.37;;;4.23;;
8066;SDS011;4076;48.076;9.118;2023-03-31T06:15:16;9.43;;;5.60;;
8066;SDS011;4076;48.076;9.118;2023-03-31T06:17:41;8.00;;;5.17;;
8066;SDS011;4076;48.076;9.118;2023-03-31T06:20:07;7.37;;;5.50;;
8066;SDS011;4076;48.076;9.118;2023-03-31T06:22:33;12.83;;;6.90;;
8066;SDS011;4076;48.076;9.118;2023-03-31T06:24:59;9.20;;;6.10;;
8066;SDS011;4076;48.076;9.118;2023-03-31T06:27:24;9.50;;;7.23;;
8066;SDS011;4076;48.076;9.118;2023-03-31T06:29:50;11.70;;;6.43;;
8066;SDS011;4076;48.076;9.118;2023-03-31T06:32:15;7.27;;;5.10;;
8066;SDS011;4076;48.076;9.118;2023-03-31T06:34:41;6.80;;;4.77;;
8066;SDS011;4076;48.076;9.118;2023-03-31T06:37:06;9.83;;;5.97;;
8066;SDS011;4076;48.076;9.118;2023-03-31T06:39:32;8.63;;;6.00;;
8066;SDS011;4076;48.076;9.118;2023-03-31T06:41:58;10.90;;;8.40;;
8066;SDS011;4076;48.076;9.118;2023-03-31T06:44:23;10.30;;;7.87;;
8066;SDS011;4076;48.076;9.118;2023-03-31T06:46:49;9.47;;;5.80;;
8066;SDS011;4076;48.076;9.118;2023-03-31T06:49:14;10.27;;;7.33;;
8066;SDS011;4076;48.076;9.118;2023-03-31T06:51:40;13.70;;;7.93;;
8066;SDS011;4076;48.076;9.118;2023-03-31T06:54:06;8.73;;;6.80;;
8066;SDS011;4076;48.076;9.118;2023-03-31T06:56:31;15.60;;;11.27;;
8066;SDS011;4076;48.076;9.118;2023-03-31T06:58:57;14.23;;;10.10;;
8066;SDS011;4076;48.076;9.118;2023-03-31T07:01:23;12.40;;;10.33;;
8066;SDS011;4076;48.076;9.118;2023-03-31T07:03:48;12.37;;;8.60;;
8066;SDS011;4076;48.076;9.118;2023-03-31T07:06:14;9.90;;;7.13;;
8066;SDS011;4076;48.076;9.118;2023-03-31T07:08:40;12.30;;;7.63;;
8066;SDS011;4076;48.076;9.118;2023-03-31T07:11:05;20.83;;;8.80;;
8066;SDS011;4076;48.076;9.118;2023-03-31T07:13:31;10.70;;;5.60;;
8066;SDS011;4076;48.076;9.118;2023-03-31T07:15:56;9.33;;;4.47;;
8066;SDS011;4076;48.076;9.118;2023-03-31T07:18:22;7.37;;;2.73;;
8066;SDS011;4076;48.076;9.118;2023-03-31T07:20:56;4.30;;;1.97;;
8066;SDS011;4076;48.076;9.118;2023-03-31T07:23:21;4.80;;;2.10;;
8066;SDS011;4076;48.076;9.118;2023-03-31T07:25:47;4.00;;;2.30;;
8066;SDS011;4076;48.076;9.118;2023-03-31T07:28:13;5.93;;;1.97;;
8066;SDS011;4076;48.076;9.118;2023-03-31T07:30:39;3.20;;;1.20;;
8066;SDS011;4076;48.076;9.118;2023-03-31T07:33:05;3.30;;;1.20;;
8066;SDS011;4076;48.076;9.118;2023-03-31T07:35:31;3.50;;;1.30;;
8066;SDS011;4076;48.076;9.118;2023-03-31T07:37:56;2.80;;;0.90;;
8066;SDS011;4076;48.076;9.118;2023-03-31T07:40:24;2.73;;;1.00;;
8066;SDS011;4076;48.076;9.118;2023-03-31T07:42:52;2.87;;;1.20;;
8066;SDS011;4076;48.076;9.118;2023-03-31T07:45:19;3.20;;;1.00;;
8066;SDS011;4076;48.076;9.118;2023-03-31T07:47:46;2.90;;;1.03;;
8066;SDS011;4076;48.076;9.118;2023-03-31T07:50:12;2.97;;;1.00;;
8066;SDS011;4076;48.076;9.118;2023-03-31T07:52:40;4.40;;;3.33;;
8066;SDS011;4076;48.076;9.118;2023-03-31T07:55:06;5.13;;;1.10;;
8066;SDS011;4076;48.076;9.118;2023-03-31T07:57:32;3.17;;;1.00;;
8066;SDS011;4076;48.076;9.118;2023-03-31T07:59:59;4.30;;;1.83;;
8066;SDS011;4076;48.076;9.118;2023-03-31T08:02:24;5.47;;;1.30;;
8066;SDS011;4076;48.076;9.118;2023-03-31T08:04:50;4.20;;;1.20;;
8066;SDS011;4076;48.076;9.118;2023-03-31T08:07:16;3.07;;;1.00;;
8066;SDS011;4076;48.076;9.118;2023-03-31T08:09:42;3.23;;;1.57;;
8066;SDS011;4076;48.076;9.118;2023-03-31T08:12:10;2.37;;;1.10;;
8066;SDS011;4076;48.076;9.118;2023-03-31T08:14:36;6.20;;;2.70;;
8066;SDS011;4076;48.076;9.118;2023-03-31T08:17:01;2.20;;;1.10;;
8066;SDS011;4076;48.076;9.118;2023-03-31T08:19:28;2.37;;;1.97;;
8066;SDS011;4076;48.076;9.118;2023-03-31T08:21:55;2.83;;;1.30;;
8066;SDS011;4076;48.076;9.118;2023-03-31T08:24:20;1.93;;;1.40;;
8066;SDS011;4076;48.076;9.118;2023-03-31T08:26:46;2.30;;;1.50;;
8066;SDS011;4076;48.076;9.118;2023-03-31T08:29:12;2.17;;;1.40;;
8066;SDS011;4076;48.076;9.118;2023-03-31T08:31:38;2.17;;;1.43;;
8066;SDS011;4076;48.076;9.118;2023-03-31T08:34:04;2.03;;;1.23;;
8066;SDS011;4076;48.076;9.118;2023-03-31T08:36:30;2.30;;;1.50;;
8066;SDS011;4076;48.076;9.118;2023-03-31T08:38:57;2.43;;;1.00;;
8066;SDS011;4076;48.076;9.118;2023-03-31T08:46:50;4.37;;;1.77;;
8066;SDS011;4076;48.076;9.118;2023-03-31T08:49:18;2.00;;;1.80;;
8066;SDS011;4076;48.076;9.118;2023-03-31T08:54:33;2.10;;;1.60;;
8066;SDS011;4076;48.076;9.118;2023-03-31T08:57:04;2.73;;;1.87;;
8066;SDS011;4076;48.076;9.118;2023-03-31T08:59:39;3.03;;;2.30;;
8066;SDS011;4076;48.076;9.118;2023-03-31T09:05:10;2.70;;;2.20;;
8066;SDS011;4076;48.076;9.118;2023-03-31T09:11:01;2.43;;;2.23;;
8066;SDS011;4076;48.076;9.118;2023-03-31T09:13:44;2.40;;;2.20;;
8066;SDS011;4076;48.076;9.118;2023-03-31T09:18:46;2.47;;;2.10;;
8066;SDS011;4076;48.076;9.118;2023-03-31T09:21:16;2.37;;;2.10;;
8066;SDS011;4076;48.076;9.118;2023-03-31T09:24:04;2.80;;;2.50;;
8066;SDS011;4076;48.076;9.118;2023-03-31T09:26:52;3.30;;;2.17;;
8066;SDS011;4076;48.076;9.118;2023-03-31T09:29:31;3.13;;;1.70;;
8066;SDS011;4076;48.076;9.118;2023-03-31T09:32:13;3.43;;;2.40;;
8066;SDS011;4076;48.076;9.118;2023-03-31T09:34:43;3.47;;;1.90;;
8066;SDS011;4076;48.076;9.118;2023-03-31T09:37:10;3.77;;;2.57;;
8066;SDS011;4076;48.076;9.118;2023-03-31T09:39:37;4.50;;;2.10;;
8066;SDS011;4076;48.076;9.118;2023-03-31T09:42:04;5.53;;;2.57;;
8066;SDS011;4076;48.076;9.118;2023-03-31T09:44:35;2.90;;;2.13;;
8066;SDS011;4076;48.076;9.118;2023-03-31T09:47:02;4.23;;;1.90;;
8066;SDS011;4076;48.076;9.118;2023-03-31T09:49:32;2.90;;;1.30;;
8066;SDS011;4076;48.076;9.118;2023-03-31T09:52:01;2.80;;;1.60;;
8066;SDS011;4076;48.076;9.118;2023-03-31T09:57:00;2.83;;;1.40;;
8066;SDS011;4076;48.076;9.118;2023-03-31T09:59:33;3.57;;;2.00;;
8066;SDS011;4076;48.076;9.118;2023-03-31T10:02:03;4.60;;;2.23;;
8066;SDS011;4076;48.076;9.118;2023-03-31T10:04:45;2.97;;;1.80;;
8066;SDS011;4076;48.076;9.118;2023-03-31T10:07:11;4.27;;;1.77;;
8066;SDS011;4076;48.076;9.118;2023-03-31T10:09:37;3.67;;;2.10;;
8066;SDS011;4076;48.076;9.118;2023-03-31T10:12:05;6.07;;;2.50;;
8066;SDS011;4076;48.076;9.118;2023-03-31T10:14:37;3.93;;;2.10;;
8066;SDS011;4076;48.076;9.118;2023-03-31T10:17:11;3.20;;;1.60;;
8066;SDS011;4076;48.076;9.118;2023-03-31T10:19:46;4.93;;;2.73;;
8066;SDS011;4076;48.076;9.118;2023-03-31T10:22:14;4.53;;;1.87;;
8066;SDS011;4076;48.076;9.118;2023-03-31T10:24:50;5.90;;;1.23;;
8066;SDS011;4076;48.076;9.118;2023-03-31T10:27:24;3.03;;;1.30;;
8066;SDS011;4076;48.076;9.118;2023-03-31T10:30:03;2.90;;;1.20;;
8066;SDS011;4076;48.076;9.118;2023-03-31T10:32:37;3.07;;;1.40;;
8066;SDS011;4076;48.076;9.118;2023-03-31T10:35:18;2.47;;;1.27;;
8066;SDS011;4076;48.076;9.118;2023-03-31T10:37:48;3.30;;;1.50;;
8066;SDS011;4076;48.076;9.118;2023-03-31T10:40:22;2.87;;;1.40;;
8066;SDS011;4076;48.076;9.118;2023-03-31T10:43:04;2.43;;;1.20;;
8066;SDS011;4076;48.076;9.118;2023-03-31T10:45:43;2.70;;;1.20;;
8066;SDS011;4076;48.076;9.118;2023-03-31T10:48:26;5.20;;;1.37;;
8066;SDS011;4076;48.076;9.118;2023-03-31T10:50:57;3.10;;;1.20;;
8066;SDS011;4076;48.076;9.118;2023-03-31T10:53:29;3.80;;;1.40;;
8066;SDS011;4076;48.076;9.118;2023-03-31T11:12:57;3.60;;;1.30;;
8066;SDS011;4076;48.076;9.118;2023-03-31T11:18:32;3.77;;;1.60;;
8066;SDS011;4076;48.076;9.118;2023-03-31T11:29:50;3.00;;;1.30;;
8066;SDS011;4076;48.076;9.118;2023-03-31T11:43:27;3.53;;;1.20;;
8066;SDS011;4076;48.076;9.118;2023-03-31T11:47:01;2.90;;;1.43;;
8066;SDS011;4076;48.076;9.118;2023-03-31T11:49:17;5.40;;;1.20;;
8066;SDS011;4076;48.076;9.118;2023-03-31T11:54:34;8.50;;;1.77;;
8066;SDS011;4076;48.076;9.118;2023-03-31T11:57:29;3.97;;;0.90;;
8066;SDS011;4076;48.076;9.118;2023-03-31T12:05:43;4.20;;;2.13;;
8066;SDS011;4076;48.076;9.118;2023-03-31T12:08:14;2.43;;;1.40;;
8066;SDS011;4076;48.076;9.118;2023-03-31T12:10:45;5.33;;;1.37;;
8066;SDS011;4076;48.076;9.118;2023-03-31T12:16:22;5.70;;;1.40;;
8066;SDS011;4076;48.076;9.118;2023-03-31T12:19:11;2.70;;;1.30;;
8066;SDS011;4076;48.076;9.118;2023-03-31T12:21:49;3.50;;;2.10;;
8066;SDS011;4076;48.076;9.118;2023-03-31T12:24:19;2.77;;;1.00;;
8066;SDS011;4076;48.076;9.118;2023-03-31T12:26:48;5.90;;;1.60;;
8066;SDS011;4076;48.076;9.118;2023-03-31T12:31:59;2.67;;;1.30;;
8066;SDS011;4076;48.076;9.118;2023-03-31T12:34:29;3.33;;;1.60;;
8066;SDS011;4076;48.076;9.118;2023-03-31T12:40:03;2.60;;;1.10;;
8066;SDS011;4076;48.076;9.118;2023-03-31T12:42:45;4.33;;;2.87;;
8066;SDS011;4076;48.076;9.118;2023-03-31T12:45:20;4.00;;;1.60;;
8066;SDS011;4076;48.076;9.118;2023-03-31T12:56:27;3.10;;;1.17;;
8066;SDS011;4076;48.076;9.118;2023-03-31T12:59:16;2.97;;;1.20;;
8066;SDS011;4076;48.076;9.118;2023-03-31T13:04:33;2.37;;;1.10;;
8066;SDS011;4076;48.076;9.118;2023-03-31T13:07:01;4.50;;;1.27;;
8066;SDS011;4076;48.076;9.118;2023-03-31T13:12:11;3.30;;;1.40;;
8066;SDS011;4076;48.076;9.118;2023-03-31T13:14:42;3.60;;;1.57;;
8066;SDS011;4076;48.076;9.118;2023-03-31T13:23:16;2.30;;;1.10;;
8066;SDS011;4076;48.076;9.118;2023-03-31T13:25:48;3.03;;;1.00;;
8066;SDS011;4076;48.076;9.118;2023-03-31T13:35:45;2.93;;;1.30;;
8066;SDS011;4076;48.076;9.118;2023-03-31T13:38:33;2.10;;;1.00;;
8066;SDS011;4076;48.076;9.118;2023-03-31T14:01:11;2.03;;;1.07;;
8066;SDS011;4076;48.076;9.118;2023-03-31T14:04:05;1.70;;;0.90;;
8066;SDS011;4076;48.076;9.118;2023-03-31T14:07:08;3.70;;;1.03;;
8066;SDS011;4076;48.076;9.118;2023-03-31T14:09:39;4.63;;;1.37;;
8066;SDS011;4076;48.076;9.118;2023-03-31T14:12:32;2.83;;;1.20;;
8066;SDS011;4076;48.076;9.118;2023-03-31T14:14:59;4.33;;;1.10;;
8066;SDS011;4076;48.076;9.118;2023-03-31T14:17:29;2.20;;;1.20;;
8066;SDS011;4076;48.076;9.118;2023-03-31T14:25:48;3.33;;;1.00;;
8066;SDS011;4076;48.076;9.118;2023-03-31T14:31:35;3.37;;;1.30;;
8066;SDS011;4076;48.076;9.118;2023-03-31T14:37:10;4.00;;;1.13;;
8066;SDS011;4076;48.076;9.118;2023-03-31T14:42:16;4.00;;;1.60;;
8066;SDS011;4076;48.076;9.118;2023-03-31T14:44:44;2.97;;;1.17;;
8066;SDS011;4076;48.076;9.118;2023-03-31T14:47:15;4.17;;;1.20;;
8066;SDS011;4076;48.076;9.118;2023-03-31T14:49:45;4.80;;;1.30;;
8066;SDS011;4076;48.076;9.118;2023-03-31T14:52:16;6.50;;;1.40;;
8066;SDS011;4076;48.076;9.118;2023-03-31T14:54:44;4.90;;;1.27;;
8066;SDS011;4076;48.076;9.118;2023-03-31T14:57:12;4.00;;;1.77;;
8066;SDS011;4076;48.076;9.118;2023-03-31T14:59:41;3.30;;;1.00;;
8066;SDS011;4076;48.076;9.118;2023-03-31T15:02:11;3.20;;;1.33;;
8066;SDS011;4076;48.076;9.118;2023-03-31T15:04:45;4.73;;;1.50;;
8066;SDS011;4076;48.076;9.118;2023-03-31T15:07:13;3.53;;;1.10;;
8066;SDS011;4076;48.076;9.118;2023-03-31T15:09:40;2.60;;;0.90;;
8066;SDS011;4076;48.076;9.118;2023-03-31T15:12:11;2.50;;;0.70;;
8066;SDS011;4076;48.076;9.118;2023-03-31T15:14:41;3.23;;;0.90;;
8066;SDS011;4076;48.076;9.118;2023-03-31T15:17:26;3.53;;;1.00;;
8066;SDS011;4076;48.076;9.118;2023-03-31T15:19:54;2.80;;;0.90;;
8066;SDS011;4076;48.076;9.118;2023-03-31T15:22:25;3.20;;;1.10;;
8066;SDS011;4076;48.076;9.118;2023-03-31T15:24:53;2.87;;;0.90;;
8066;SDS011;4076;48.076;9.118;2023-03-31T15:27:52;2.90;;;0.90;;
8066;SDS011;4076;48.076;9.118;2023-03-31T15:30:15;2.80;;;0.80;;
8066;SDS011;4076;48.076;9.118;2023-03-31T15:32:43;2.60;;;0.80;;
8066;SDS011;4076;48.076;9.118;2023-03-31T15:35:17;3.13;;;1.00;;
8066;SDS011;4076;48.076;9.118;2023-03-31T15:37:44;3.10;;;1.00;;
8066;SDS011;4076;48.076;9.118;2023-03-31T15:40:30;2.37;;;0.80;;
8066;SDS011;4076;48.076;9.118;2023-03-31T15:43:14;2.53;;;0.90;;
8066;SDS011;4076;48.076;9.118;2023-03-31T15:45:46;3.63;;;1.37;;
8066;SDS011;4076;48.076;9.118;2023-03-31T15:48:15;2.27;;;0.77;;
8066;SDS011;4076;48.076;9.118;2023-03-31T15:51:00;2.20;;;0.80;;
8066;SDS011;4076;48.076;9.118;2023-03-31T15:56:01;2.60;;;0.70;;
8066;SDS011;4076;48.076;9.118;2023-03-31T16:01:17;2.83;;;1.40;;
8066;SDS011;4076;48.076;9.118;2023-03-31T16:03:43;3.60;;;1.70;;
8066;SDS011;4076;48.076;9.118;2023-03-31T16:09:01;2.87;;;1.00;;
8066;SDS011;4076;48.076;9.118;2023-03-31T16:11:35;5.60;;;1.40;;
8066;SDS011;4076;48.076;9.118;2023-03-31T16:14:13;2.90;;;1.10;;
8066;SDS011;4076;48.076;9.118;2023-03-31T16:16:53;3.20;;;1.17;;
8066;SDS011;4076;48.076;9.118;2023-03-31T16:19:29;2.70;;;1.00;;
8066;SDS011;4076;48.076;9.118;2023-03-31T16:22:02;3.07;;;0.90;;
8066;SDS011;4076;48.076;9.118;2023-03-31T16:24:32;2.70;;;1.20;;
8066;SDS011;4076;48.076;9.118;2023-03-31T16:27:03;2.77;;;1.10;;
8066;SDS011;4076;48.076;9.118;2023-03-31T16:29:33;7.00;;;1.60;;
8066;SDS011;4076;48.076;9.118;2023-03-31T16:32:08;6.03;;;1.30;;
8066;SDS011;4076;48.076;9.118;2023-03-31T16:34:51;2.87;;;1.00;;
8066;SDS011;4076;48.076;9.118;2023-03-31T16:37:17;2.50;;;1.10;;
8066;SDS011;4076;48.076;9.118;2023-03-31T16:39:43;3.37;;;1.07;;
8066;SDS011;4076;48.076;9.118;2023-03-31T16:42:08;2.50;;;1.00;;
8066;SDS011;4076;48.076;9.118;2023-03-31T16:44:34;2.47;;;1.00;;
8066;SDS011;4076;48.076;9.118;2023-03-31T16:47:00;4.07;;;1.57;;
8066;SDS011;4076;48.076;9.118;2023-03-31T16:49:25;4.50;;;1.00;;
8066;SDS011;4076;48.076;9.118;2023-03-31T16:51:51;3.00;;;1.10;;
8066;SDS011;4076;48.076;9.118;2023-03-31T16:54:16;3.13;;;1.00;;
8066;SDS011;4076;48.076;9.118;2023-03-31T16:56:42;5.33;;;2.20;;
8066;SDS011;4076;48.076;9.118;2023-03-31T16:59:08;5.07;;;1.43;;
8066;SDS011;4076;48.076;9.118;2023-03-31T17:01:34;2.50;;;1.00;;
8066;SDS011;4076;48.076;9.118;2023-03-31T17:04:00;2.90;;;1.10;;
8066;SDS011;4076;48.076;9.118;2023-03-31T17:06:25;6.20;;;1.10;;
8066;SDS011;4076;48.076;9.118;2023-03-31T17:08:53;4.17;;;1.00;;
8066;SDS011;4076;48.076;9.118;2023-03-31T17:11:18;7.17;;;1.13;;
8066;SDS011;4076;48.076;9.118;2023-03-31T17:13:44;2.70;;;1.00;;
8066;SDS011;4076;48.076;9.118;2023-03-31T17:16:10;2.60;;;0.90;;
8066;SDS011;4076;48.076;9.118;2023-03-31T17:18:36;3.37;;;1.70;;
8066;SDS011;4076;48.076;9.118;2023-03-31T17:21:02;2.83;;;1.00;;
8066;SDS011;4076;48.076;9.118;2023-03-31T17:23:29;3.13;;;0.90;;
8066;SDS011;4076;48.076;9.118;2023-03-31T17:25:55;2.33;;;0.97;;
8066;SDS011;4076;48.076;9.118;2023-03-31T17:28:21;3.23;;;1.00;;
8066;SDS011;4076;48.076;9.118;2023-03-31T17:30:46;3.63;;;1.17;;
8066;SDS011;4076;48.076;9.118;2023-03-31T17:33:14;3.43;;;1.27;;
8066;SDS011;4076;48.076;9.118;2023-03-31T17:35:40;3.57;;;1.70;;
8066;SDS011;4076;48.076;9.118;2023-03-31T17:38:07;5.27;;;1.00;;
8066;SDS011;4076;48.076;9.118;2023-03-31T17:40:34;3.37;;;1.03;;
8066;SDS011;4076;48.076;9.118;2023-03-31T17:43:00;4.90;;;1.70;;
8066;SDS011;4076;48.076;9.118;2023-03-31T17:45:27;3.07;;;1.20;;
8066;SDS011;4076;48.076;9.118;2023-03-31T17:47:53;2.43;;;0.90;;
8066;SDS011;4076;48.076;9.118;2023-03-31T17:50:19;2.93;;;1.20;;
8066;SDS011;4076;48.076;9.118;2023-03-31T17:52:45;5.10;;;1.27;;
8066;SDS011;4076;48.076;9.118;2023-03-31T17:55:11;6.43;;;1.60;;
8066;SDS011;4076;48.076;9.118;2023-03-31T17:57:37;4.00;;;1.80;;
8066;SDS011;4076;48.076;9.118;2023-03-31T18:00:04;3.10;;;1.20;;
8066;SDS011;4076;48.076;9.118;2023-03-31T18:02:34;3.57;;;1.23;;
8066;SDS011;4076;48.076;9.118;2023-03-31T18:05:01;18.70;;;1.90;;
8066;SDS011;4076;48.076;9.118;2023-03-31T18:07:27;3.97;;;1.23;;
8066;SDS011;4076;48.076;9.118;2023-03-31T18:09:54;4.50;;;1.17;;
8066;SDS011;4076;48.076;9.118;2023-03-31T18:12:19;3.07;;;1.47;;
8066;SDS011;4076;48.076;9.118;2023-03-31T18:14:45;4.30;;;1.80;;
8066;SDS011;4076;48.076;9.118;2023-03-31T18:17:10;3.47;;;1.30;;
8066;SDS011;4076;48.076;9.118;2023-03-31T18:19:38;5.63;;;1.30;;
8066;SDS011;4076;48.076;9.118;2023-03-31T18:22:05;3.53;;;1.30;;
8066;SDS011;4076;48.076;9.118;2023-03-31T18:24:31;5.27;;;2.03;;
8066;SDS011;4076;48.076;9.118;2023-03-31T18:26:58;6.10;;;2.63;;
8066;SDS011;4076;48.076;9.118;2023-03-31T18:29:23;3.37;;;1.20;;
8066;SDS011;4076;48.076;9.118;2023-03-31T18:31:49;5.90;;;1.50;;
8066;SDS011;4076;48.076;9.118;2023-03-31T18:34:15;3.40;;;2.13;;
8066;SDS011;4076;48.076;9.118;2023-03-31T18:36:40;3.10;;;1.30;;
8066;SDS011;4076;48.076;9.118;2023-03-31T18:39:06;4.53;;;1.80;;